sensor_id;sensor_type;location;lat;lon;timestamp;temperature;humidity
42841;DHT22;28491;46.898;7.660;2023-12-29T00:01:56;3.70;95.90
42841;DHT22;28491;46.898;7.660;2023-12-29T00:04:22;3.80;96.20
42841;DHT22;28491;46.898;7.660;2023-12-29T00:06:47;3.80;95.10
42841;DHT22;28491;46.898;7.660;2023-12-29T00:09:14;3.80;94.50
42841;DHT22;28491;46.898;7.660;2023-12-29T00:11:40;3.80;93.70
42841;DHT22;28491;46.898;7.660;2023-12-29T00:14:05;3.90;94.10
42841;DHT22;28491;46.898;7.660;2023-12-29T00:16:31;3.80;94.60
42841;DHT22;28491;46.898;7.660;2023-12-29T00:18:57;3.80;94.20
42841;DHT22;28491;46.898;7.660;2023-12-29T00:21:22;3.80;94.50
42841;DHT22;28491;46.898;7.660;2023-12-29T00:23:48;3.80;94.80
42841;DHT22;28491;46.898;7.660;2023-12-29T00:26:16;3.80;95.80
42841;DHT22;28491;46.898;7.660;2023-12-29T00:28:43;3.80;95.10
42841;DHT22;28491;46.898;7.660;2023-12-29T00:31:08;3.80;95.50
42841;DHT22;28491;46.898;7.660;2023-12-29T00:33:34;3.80;94.50
42841;DHT22;28491;46.898;7.660;2023-12-29T00:36:00;3.80;94.30
42841;DHT22;28491;46.898;7.660;2023-12-29T00:38:26;3.80;94.00
42841;DHT22;28491;46.898;7.660;2023-12-29T00:40:53;3.80;93.30
42841;DHT22;28491;46.898;7.660;2023-12-29T00:43:18;3.80;93.10
42841;DHT22;28491;46.898;7.660;2023-12-29T00:45:44;3.80;91.90
42841;DHT22;28491;46.898;7.660;2023-12-29T00:48:09;3.80;93.10
42841;DHT22;28491;46.898;7.660;2023-12-29T00:50:35;3.70;91.80
42841;DHT22;28491;46.898;7.660;2023-12-29T00:53:01;3.80;90.50
42841;DHT22;28491;46.898;7.660;2023-12-29T00:55:26;3.80;90.10
42841;DHT22;28491;46.898;7.660;2023-12-29T00:57:52;3.80;89.70
42841;DHT22;28491;46.898;7.660;2023-12-29T01:00:17;3.80;87.60
42841;DHT22;28491;46.898;7.660;2023-12-29T01:02:43;3.70;88.80
42841;DHT22;28491;46.898;7.660;2023-12-29T01:05:08;3.80;92.10
42841;DHT22;28491;46.898;7.660;2023-12-29T01:07:34;3.70;92.40
42841;DHT22;28491;46.898;7.660;2023-12-29T01:09:59;3.70;93.30
42841;DHT22;28491;46.898;7.660;2023-12-29T01:12:26;3.80;93.70
42841;DHT22;28491;46.898;7.660;2023-12-29T01:14:51;3.80;93.50
42841;DHT22;28491;46.898;7.660;2023-12-29T01:17:17;3.80;94.10
42841;DHT22;28491;46.898;7.660;2023-12-29T01:19:42;3.80;94.00
42841;DHT22;28491;46.898;7.660;2023-12-29T01:22:08;3.70;94.00
42841;DHT22;28491;46.898;7.660;2023-12-29T01:24:33;3.70;93.70
42841;DHT22;28491;46.898;7.660;2023-12-29T01:27:00;3.80;94.10
42841;DHT22;28491;46.898;7.660;2023-12-29T01:29:26;3.80;93.50
42841;DHT22;28491;46.898;7.660;2023-12-29T01:31:51;3.80;93.90
42841;DHT22;28491;46.898;7.660;2023-12-29T01:34:17;3.80;93.80
42841;DHT22;28491;46.898;7.660;2023-12-29T01:36:42;3.90;93.00
42841;DHT22;28491;46.898;7.660;2023-12-29T01:39:08;3.90;92.50
42841;DHT22;28491;46.898;7.660;2023-12-29T01:41:33;3.90;92.70
42841;DHT22;28491;46.898;7.660;2023-12-29T01:46:25;3.90;92.60
42841;DHT22;28491;46.898;7.660;2023-12-29T01:48:52;3.90;92.50
42841;DHT22;28491;46.898;7.660;2023-12-29T01:51:18;3.90;93.30
42841;DHT22;28491;46.898;7.660;2023-12-29T01:53:46;3.90;93.40
42841;DHT22;28491;46.898;7.660;2023-12-29T01:56:11;3.90;94.60
42841;DHT22;28491;46.898;7.660;2023-12-29T01:58:37;3.90;94.30
42841;DHT22;28491;46.898;7.660;2023-12-29T02:01:03;3.90;94.70
42841;DHT22;28491;46.898;7.660;2023-12-29T02:03:30;3.90;94.40
42841;DHT22;28491;46.898;7.660;2023-12-29T02:05:56;4.00;93.50
42841;DHT22;28491;46.898;7.660;2023-12-29T02:08:22;4.00;92.60
42841;DHT22;28491;46.898;7.660;2023-12-29T02:10:48;4.00;91.80
42841;DHT22;28491;46.898;7.660;2023-12-29T02:13:14;4.00;90.70
42841;DHT22;28491;46.898;7.660;2023-12-29T02:15:40;4.00;91.40
42841;DHT22;28491;46.898;7.660;2023-12-29T02:18:07;4.10;91.40
42841;DHT22;28491;46.898;7.660;2023-12-29T02:20:35;4.10;92.70
42841;DHT22;28491;46.898;7.660;2023-12-29T02:23:01;4.00;94.00
42841;DHT22;28491;46.898;7.660;2023-12-29T02:25:27;4.10;94.70
42841;DHT22;28491;46.898;7.660;2023-12-29T02:30:37;4.00;95.10
42841;DHT22;28491;46.898;7.660;2023-12-29T02:33:10;4.00;94.20
42841;DHT22;28491;46.898;7.660;2023-12-29T02:35:41;4.00;95.10
42841;DHT22;28491;46.898;7.660;2023-12-29T02:38:07;4.00;94.80
42841;DHT22;28491;46.898;7.660;2023-12-29T02:40:33;4.00;95.70
42841;DHT22;28491;46.898;7.660;2023-12-29T02:42:59;4.00;97.10
42841;DHT22;28491;46.898;7.660;2023-12-29T02:45:24;4.00;97.80
42841;DHT22;28491;46.898;7.660;2023-12-29T02:47:50;4.00;98.30
42841;DHT22;28491;46.898;7.660;2023-12-29T02:50:16;4.00;98.60
42841;DHT22;28491;46.898;7.660;2023-12-29T02:52:42;3.90;99.20
42841;DHT22;28491;46.898;7.660;2023-12-29T02:55:07;4.00;99.80
42841;DHT22;28491;46.898;7.660;2023-12-29T02:57:33;4.00;99.90
42841;DHT22;28491;46.898;7.660;2023-12-29T02:59:59;4.00;99.90
42841;DHT22;28491;46.898;7.660;2023-12-29T03:02:24;4.00;99.90
42841;DHT22;28491;46.898;7.660;2023-12-29T03:04:50;4.10;99.90
42841;DHT22;28491;46.898;7.660;2023-12-29T03:07:16;4.00;1.00
42841;DHT22;28491;46.898;7.660;2023-12-29T03:09:42;4.00;1.00
42841;DHT22;28491;46.898;7.660;2023-12-29T03:12:07;4.00;1.00
42841;DHT22;28491;46.898;7.660;2023-12-29T03:14:33;4.00;1.00
42841;DHT22;28491;46.898;7.660;2023-12-29T03:16:59;4.00;1.00
42841;DHT22;28491;46.898;7.660;2023-12-29T03:19:24;4.00;1.00
42841;DHT22;28491;46.898;7.660;2023-12-29T03:21:50;4.00;1.00
42841;DHT22;28491;46.898;7.660;2023-12-29T03:24:16;4.00;1.00
42841;DHT22;28491;46.898;7.660;2023-12-29T03:26:42;4.10;1.00
42841;DHT22;28491;46.898;7.660;2023-12-29T03:29:08;4.10;1.00
42841;DHT22;28491;46.898;7.660;2023-12-29T03:31:33;4.10;1.00
42841;DHT22;28491;46.898;7.660;2023-12-29T03:33:59;4.10;1.00
42841;DHT22;28491;46.898;7.660;2023-12-29T03:36:24;4.20;1.00
42841;DHT22;28491;46.898;7.660;2023-12-29T03:38:50;4.20;1.00
42841;DHT22;28491;46.898;7.660;2023-12-29T03:41:15;4.20;1.00
42841;DHT22;28491;46.898;7.660;2023-12-29T03:43:41;4.20;1.00
42841;DHT22;28491;46.898;7.660;2023-12-29T03:46:20;4.20;1.00
42841;DHT22;28491;46.898;7.660;2023-12-29T03:48:45;4.20;1.00
42841;DHT22;28491;46.898;7.660;2023-12-29T03:51:11;4.20;1.00
42841;DHT22;28491;46.898;7.660;2023-12-29T03:53:37;4.10;1.00
42841;DHT22;28491;46.898;7.660;2023-12-29T03:56:12;4.20;1.00
42841;DHT22;28491;46.898;7.660;2023-12-29T03:58:38;4.30;1.00
42841;DHT22;28491;46.898;7.660;2023-12-29T04:01:04;4.30;1.00
42841;DHT22;28491;46.898;7.660;2023-12-29T04:03:29;4.40;1.00
42841;DHT22;28491;46.898;7.660;2023-12-29T04:05:55;4.40;1.00
42841;DHT22;28491;46.898;7.660;2023-12-29T04:08:20;4.40;1.00
42841;DHT22;28491;46.898;7.660;2023-12-29T04:10:46;4.40;1.00
42841;DHT22;28491;46.898;7.660;2023-12-29T04:13:11;4.40;1.00
42841;DHT22;28491;46.898;7.660;2023-12-29T04:15:37;4.40;1.00
42841;DHT22;28491;46.898;7.660;2023-12-29T04:18:02;4.40;1.00
42841;DHT22;28491;46.898;7.660;2023-12-29T04:20:28;4.50;1.00
42841;DHT22;28491;46.898;7.660;2023-12-29T04:22:54;4.50;1.00
42841;DHT22;28491;46.898;7.660;2023-12-29T04:25:20;4.50;1.00
42841;DHT22;28491;46.898;7.660;2023-12-29T04:27:46;4.50;1.00
42841;DHT22;28491;46.898;7.660;2023-12-29T04:30:11;4.50;1.00
42841;DHT22;28491;46.898;7.660;2023-12-29T04:32:37;4.50;1.00
42841;DHT22;28491;46.898;7.660;2023-12-29T04:35:03;4.60;1.00
42841;DHT22;28491;46.898;7.660;2023-12-29T04:37:28;4.60;1.00
42841;DHT22;28491;46.898;7.660;2023-12-29T04:39:54;4.60;1.00
42841;DHT22;28491;46.898;7.660;2023-12-29T04:42:19;4.60;1.00
42841;DHT22;28491;46.898;7.660;2023-12-29T04:44:45;4.60;1.00
42841;DHT22;28491;46.898;7.660;2023-12-29T04:47:10;4.70;1.00
42841;DHT22;28491;46.898;7.660;2023-12-29T04:49:36;4.70;1.00
42841;DHT22;28491;46.898;7.660;2023-12-29T04:52:02;4.70;1.00
42841;DHT22;28491;46.898;7.660;2023-12-29T04:54:27;4.70;1.00
42841;DHT22;28491;46.898;7.660;2023-12-29T04:56:53;4.70;1.00
42841;DHT22;28491;46.898;7.660;2023-12-29T04:59:19;4.70;1.00
42841;DHT22;28491;46.898;7.660;2023-12-29T05:01:44;4.70;1.00
42841;DHT22;28491;46.898;7.660;2023-12-29T05:04:10;4.70;1.00
42841;DHT22;28491;46.898;7.660;2023-12-29T05:06:35;4.70;1.00
42841;DHT22;28491;46.898;7.660;2023-12-29T05:09:01;4.70;1.00
42841;DHT22;28491;46.898;7.660;2023-12-29T05:11:26;4.70;1.00
42841;DHT22;28491;46.898;7.660;2023-12-29T05:13:52;4.70;4.40
42841;DHT22;28491;46.898;7.660;2023-12-29T05:16:18;4.70;5.90
42841;DHT22;28491;46.898;7.660;2023-12-29T05:18:43;4.80;17.30
42841;DHT22;28491;46.898;7.660;2023-12-29T05:21:16;4.80;21.70
42841;DHT22;28491;46.898;7.660;2023-12-29T05:23:42;4.80;19.00
42841;DHT22;28491;46.898;7.660;2023-12-29T05:26:08;4.70;20.60
42841;DHT22;28491;46.898;7.660;2023-12-29T05:28:34;4.70;19.10
42841;DHT22;28491;46.898;7.660;2023-12-29T05:30:59;4.80;34.80
42841;DHT22;28491;46.898;7.660;2023-12-29T05:33:29;4.80;42.60
42841;DHT22;28491;46.898;7.660;2023-12-29T05:35:54;4.80;45.50
42841;DHT22;28491;46.898;7.660;2023-12-29T05:38:20;4.70;61.00
42841;DHT22;28491;46.898;7.660;2023-12-29T05:40:45;4.80;63.40
42841;DHT22;28491;46.898;7.660;2023-12-29T05:43:11;4.80;64.80
42841;DHT22;28491;46.898;7.660;2023-12-29T05:45:36;4.80;67.00
42841;DHT22;28491;46.898;7.660;2023-12-29T05:48:02;4.70;68.90
42841;DHT22;28491;46.898;7.660;2023-12-29T05:50:28;4.70;68.80
42841;DHT22;28491;46.898;7.660;2023-12-29T05:52:54;4.80;69.40
42841;DHT22;28491;46.898;7.660;2023-12-29T05:55:19;4.70;69.80
42841;DHT22;28491;46.898;7.660;2023-12-29T05:57:45;4.80;69.00
42841;DHT22;28491;46.898;7.660;2023-12-29T06:00:11;4.80;72.40
42841;DHT22;28491;46.898;7.660;2023-12-29T06:02:40;4.70;73.10
42841;DHT22;28491;46.898;7.660;2023-12-29T06:05:07;4.70;75.30
42841;DHT22;28491;46.898;7.660;2023-12-29T06:07:33;4.80;77.00
42841;DHT22;28491;46.898;7.660;2023-12-29T06:09:59;4.80;76.70
42841;DHT22;28491;46.898;7.660;2023-12-29T06:12:25;4.80;77.00
42841;DHT22;28491;46.898;7.660;2023-12-29T06:14:50;4.70;76.80
42841;DHT22;28491;46.898;7.660;2023-12-29T06:17:16;4.80;77.90
42841;DHT22;28491;46.898;7.660;2023-12-29T06:19:41;4.70;77.40
42841;DHT22;28491;46.898;7.660;2023-12-29T06:22:07;4.70;77.80
42841;DHT22;28491;46.898;7.660;2023-12-29T06:24:37;4.70;77.50
42841;DHT22;28491;46.898;7.660;2023-12-29T06:27:03;4.70;79.70
42841;DHT22;28491;46.898;7.660;2023-12-29T06:29:28;4.80;82.60
42841;DHT22;28491;46.898;7.660;2023-12-29T06:31:54;4.80;81.70
42841;DHT22;28491;46.898;7.660;2023-12-29T06:34:20;4.80;81.40
42841;DHT22;28491;46.898;7.660;2023-12-29T06:36:45;4.70;80.80
42841;DHT22;28491;46.898;7.660;2023-12-29T06:39:11;4.80;81.10
42841;DHT22;28491;46.898;7.660;2023-12-29T06:41:37;4.70;80.30
42841;DHT22;28491;46.898;7.660;2023-12-29T06:44:02;4.80;81.10
42841;DHT22;28491;46.898;7.660;2023-12-29T06:46:28;4.90;88.50
42841;DHT22;28491;46.898;7.660;2023-12-29T06:48:54;4.90;87.80
42841;DHT22;28491;46.898;7.660;2023-12-29T06:51:20;4.90;88.00
42841;DHT22;28491;46.898;7.660;2023-12-29T06:53:49;4.90;88.80
42841;DHT22;28491;46.898;7.660;2023-12-29T06:56:17;4.90;88.80
42841;DHT22;28491;46.898;7.660;2023-12-29T06:58:43;4.90;89.50
42841;DHT22;28491;46.898;7.660;2023-12-29T07:01:09;4.90;90.20
42841;DHT22;28491;46.898;7.660;2023-12-29T07:03:35;4.90;90.20
42841;DHT22;28491;46.898;7.660;2023-12-29T07:06:01;5.00;90.80
42841;DHT22;28491;46.898;7.660;2023-12-29T07:08:27;4.90;90.50
42841;DHT22;28491;46.898;7.660;2023-12-29T07:10:53;4.90;90.10
42841;DHT22;28491;46.898;7.660;2023-12-29T07:13:19;4.90;89.40
42841;DHT22;28491;46.898;7.660;2023-12-29T07:15:47;4.90;90.10
42841;DHT22;28491;46.898;7.660;2023-12-29T07:18:14;4.90;90.30
42841;DHT22;28491;46.898;7.660;2023-12-29T07:20:41;5.00;91.00
42841;DHT22;28491;46.898;7.660;2023-12-29T07:23:07;4.90;91.00
42841;DHT22;28491;46.898;7.660;2023-12-29T07:25:33;5.00;91.10
42841;DHT22;28491;46.898;7.660;2023-12-29T07:27:59;4.90;91.10
42841;DHT22;28491;46.898;7.660;2023-12-29T07:30:24;5.00;91.20
42841;DHT22;28491;46.898;7.660;2023-12-29T07:32:54;5.00;91.20
42841;DHT22;28491;46.898;7.660;2023-12-29T07:35:20;5.00;91.10
42841;DHT22;28491;46.898;7.660;2023-12-29T07:37:46;5.00;91.20
42841;DHT22;28491;46.898;7.660;2023-12-29T07:40:13;4.90;91.10
42841;DHT22;28491;46.898;7.660;2023-12-29T07:42:41;5.00;90.90
42841;DHT22;28491;46.898;7.660;2023-12-29T07:45:08;5.00;90.60
42841;DHT22;28491;46.898;7.660;2023-12-29T07:47:34;5.00;90.10
42841;DHT22;28491;46.898;7.660;2023-12-29T07:50:00;5.00;90.00
42841;DHT22;28491;46.898;7.660;2023-12-29T07:52:25;5.00;89.20
42841;DHT22;28491;46.898;7.660;2023-12-29T07:54:51;5.00;89.60
42841;DHT22;28491;46.898;7.660;2023-12-29T07:57:16;5.00;89.90
42841;DHT22;28491;46.898;7.660;2023-12-29T07:59:42;5.00;88.70
42841;DHT22;28491;46.898;7.660;2023-12-29T08:02:07;5.10;88.20
42841;DHT22;28491;46.898;7.660;2023-12-29T08:04:33;5.10;87.60
42841;DHT22;28491;46.898;7.660;2023-12-29T08:06:58;5.10;87.20
42841;DHT22;28491;46.898;7.660;2023-12-29T08:09:25;5.10;87.10
42841;DHT22;28491;46.898;7.660;2023-12-29T08:11:51;5.10;88.20
42841;DHT22;28491;46.898;7.660;2023-12-29T08:14:16;5.20;90.40
42841;DHT22;28491;46.898;7.660;2023-12-29T08:16:42;5.10;90.50
42841;DHT22;28491;46.898;7.660;2023-12-29T08:19:08;5.10;90.40
42841;DHT22;28491;46.898;7.660;2023-12-29T08:21:34;5.20;91.40
42841;DHT22;28491;46.898;7.660;2023-12-29T08:23:59;5.10;91.10
42841;DHT22;28491;46.898;7.660;2023-12-29T08:26:25;5.10;90.60
42841;DHT22;28491;46.898;7.660;2023-12-29T08:28:51;5.20;90.50
42841;DHT22;28491;46.898;7.660;2023-12-29T08:31:18;5.20;90.10
42841;DHT22;28491;46.898;7.660;2023-12-29T08:33:44;5.20;90.10
42841;DHT22;28491;46.898;7.660;2023-12-29T08:36:10;5.20;90.50
42841;DHT22;28491;46.898;7.660;2023-12-29T08:38:36;5.20;91.00
42841;DHT22;28491;46.898;7.660;2023-12-29T08:41:02;5.20;91.00
42841;DHT22;28491;46.898;7.660;2023-12-29T08:43:28;5.20;90.40
42841;DHT22;28491;46.898;7.660;2023-12-29T08:45:53;5.20;89.70
42841;DHT22;28491;46.898;7.660;2023-12-29T08:48:19;5.20;90.30
42841;DHT22;28491;46.898;7.660;2023-12-29T08:50:45;5.30;92.00
42841;DHT22;28491;46.898;7.660;2023-12-29T08:53:10;5.30;92.30
42841;DHT22;28491;46.898;7.660;2023-12-29T08:55:36;5.20;91.90
42841;DHT22;28491;46.898;7.660;2023-12-29T08:58:01;5.30;91.30
42841;DHT22;28491;46.898;7.660;2023-12-29T09:00:27;5.30;90.90
42841;DHT22;28491;46.898;7.660;2023-12-29T09:02:56;5.30;90.20
42841;DHT22;28491;46.898;7.660;2023-12-29T09:05:21;5.30;89.70
42841;DHT22;28491;46.898;7.660;2023-12-29T09:07:47;5.20;88.10
42841;DHT22;28491;46.898;7.660;2023-12-29T09:10:13;5.20;88.20
42841;DHT22;28491;46.898;7.660;2023-12-29T09:12:40;5.20;90.40
42841;DHT22;28491;46.898;7.660;2023-12-29T09:15:06;5.20;91.40
42841;DHT22;28491;46.898;7.660;2023-12-29T09:17:32;5.30;91.90
42841;DHT22;28491;46.898;7.660;2023-12-29T09:19:57;5.30;92.20
42841;DHT22;28491;46.898;7.660;2023-12-29T09:22:23;5.30;92.30
42841;DHT22;28491;46.898;7.660;2023-12-29T09:24:48;5.30;92.50
42841;DHT22;28491;46.898;7.660;2023-12-29T09:27:14;5.30;92.40
42841;DHT22;28491;46.898;7.660;2023-12-29T09:29:41;5.30;92.20
42841;DHT22;28491;46.898;7.660;2023-12-29T09:32:06;5.30;92.50
42841;DHT22;28491;46.898;7.660;2023-12-29T09:34:32;5.30;92.00
42841;DHT22;28491;46.898;7.660;2023-12-29T09:36:57;5.30;91.50
42841;DHT22;28491;46.898;7.660;2023-12-29T09:39:25;5.30;90.80
42841;DHT22;28491;46.898;7.660;2023-12-29T09:41:52;5.30;90.40
42841;DHT22;28491;46.898;7.660;2023-12-29T09:44:20;5.30;90.00
42841;DHT22;28491;46.898;7.660;2023-12-29T09:46:50;5.40;90.70
42841;DHT22;28491;46.898;7.660;2023-12-29T09:49:18;5.30;91.20
42841;DHT22;28491;46.898;7.660;2023-12-29T09:51:44;5.40;91.30
42841;DHT22;28491;46.898;7.660;2023-12-29T09:54:10;5.40;92.00
42841;DHT22;28491;46.898;7.660;2023-12-29T09:56:37;5.40;92.10
42841;DHT22;28491;46.898;7.660;2023-12-29T09:59:03;5.50;92.70
42841;DHT22;28491;46.898;7.660;2023-12-29T10:01:30;5.60;93.20
42841;DHT22;28491;46.898;7.660;2023-12-29T10:03:57;5.60;93.00
42841;DHT22;28491;46.898;7.660;2023-12-29T10:06:26;5.70;92.60
42841;DHT22;28491;46.898;7.660;2023-12-29T10:08:53;5.70;91.50
42841;DHT22;28491;46.898;7.660;2023-12-29T10:11:21;5.70;90.30
42841;DHT22;28491;46.898;7.660;2023-12-29T10:13:50;5.80;89.20
42841;DHT22;28491;46.898;7.660;2023-12-29T10:19:01;5.80;86.40
42841;DHT22;28491;46.898;7.660;2023-12-29T10:21:37;5.90;87.30
42841;DHT22;28491;46.898;7.660;2023-12-29T10:24:12;5.90;87.90
42841;DHT22;28491;46.898;7.660;2023-12-29T10:26:40;6.00;87.30
42841;DHT22;28491;46.898;7.660;2023-12-29T10:29:06;5.90;84.60
42841;DHT22;28491;46.898;7.660;2023-12-29T10:31:32;6.00;84.10
42841;DHT22;28491;46.898;7.660;2023-12-29T10:34:23;6.00;83.30
42841;DHT22;28491;46.898;7.660;2023-12-29T10:36:56;6.00;82.70
42841;DHT22;28491;46.898;7.660;2023-12-29T10:39:22;6.10;81.40
42841;DHT22;28491;46.898;7.660;2023-12-29T10:41:49;6.10;80.90
42841;DHT22;28491;46.898;7.660;2023-12-29T10:44:16;6.20;80.80
42841;DHT22;28491;46.898;7.660;2023-12-29T10:46:41;6.20;79.00
42841;DHT22;28491;46.898;7.660;2023-12-29T10:49:13;6.30;78.20
42841;DHT22;28491;46.898;7.660;2023-12-29T10:51:39;6.40;74.80
42841;DHT22;28491;46.898;7.660;2023-12-29T10:54:05;6.30;73.60
42841;DHT22;28491;46.898;7.660;2023-12-29T10:56:32;6.30;73.10
42841;DHT22;28491;46.898;7.660;2023-12-29T10:59:03;6.40;69.60
42841;DHT22;28491;46.898;7.660;2023-12-29T11:01:49;6.40;69.50
42841;DHT22;28491;46.898;7.660;2023-12-29T11:04:22;6.40;66.90
42841;DHT22;28491;46.898;7.660;2023-12-29T11:06:57;6.50;66.20
42841;DHT22;28491;46.898;7.660;2023-12-29T11:09:33;6.50;64.60
42841;DHT22;28491;46.898;7.660;2023-12-29T11:12:04;6.50;65.80
42841;DHT22;28491;46.898;7.660;2023-12-29T11:14:31;6.60;63.30
42841;DHT22;28491;46.898;7.660;2023-12-29T11:16:58;6.80;54.40
42841;DHT22;28491;46.898;7.660;2023-12-29T11:19:25;6.90;32.10
42841;DHT22;28491;46.898;7.660;2023-12-29T11:21:54;7.10;1.00
42841;DHT22;28491;46.898;7.660;2023-12-29T11:24:20;7.20;1.00
42841;DHT22;28491;46.898;7.660;2023-12-29T11:26:46;7.20;1.00
42841;DHT22;28491;46.898;7.660;2023-12-29T11:29:23;7.20;1.00
42841;DHT22;28491;46.898;7.660;2023-12-29T11:31:50;7.40;1.00
42841;DHT22;28491;46.898;7.660;2023-12-29T11:34:29;7.40;1.00
42841;DHT22;28491;46.898;7.660;2023-12-29T11:37:08;7.60;1.00
42841;DHT22;28491;46.898;7.660;2023-12-29T11:39:52;7.70;1.00
42841;DHT22;28491;46.898;7.660;2023-12-29T11:42:21;7.80;1.00
42841;DHT22;28491;46.898;7.660;2023-12-29T11:44:48;8.10;94.80
42841;DHT22;28491;46.898;7.660;2023-12-29T11:47:35;8.20;90.70
42841;DHT22;28491;46.898;7.660;2023-12-29T11:50:01;8.20;91.80
42841;DHT22;28491;46.898;7.660;2023-12-29T11:52:45;8.20;87.60
42841;DHT22;28491;46.898;7.660;2023-12-29T11:55:13;8.20;93.30
42841;DHT22;28491;46.898;7.660;2023-12-29T11:57:39;8.30;92.20
42841;DHT22;28491;46.898;7.660;2023-12-29T12:00:06;8.30;91.20
42841;DHT22;28491;46.898;7.660;2023-12-29T12:02:32;8.40;77.80
42841;DHT22;28491;46.898;7.660;2023-12-29T12:04:58;8.40;71.00
42841;DHT22;28491;46.898;7.660;2023-12-29T12:09:51;8.70;9.00
42841;DHT22;28491;46.898;7.660;2023-12-29T12:12:41;8.70;1.00
42841;DHT22;28491;46.898;7.660;2023-12-29T12:18:04;8.60;47.10
42841;DHT22;28491;46.898;7.660;2023-12-29T12:20:32;8.60;31.50
42841;DHT22;28491;46.898;7.660;2023-12-29T12:23:03;8.50;61.20
42841;DHT22;28491;46.898;7.660;2023-12-29T12:25:31;8.50;66.20
42841;DHT22;28491;46.898;7.660;2023-12-29T12:28:05;8.50;67.50
42841;DHT22;28491;46.898;7.660;2023-12-29T12:30:41;8.70;1.00
42841;DHT22;28491;46.898;7.660;2023-12-29T12:33:07;8.60;17.10
42841;DHT22;28491;46.898;7.660;2023-12-29T12:35:36;8.50;71.50
42841;DHT22;28491;46.898;7.660;2023-12-29T12:38:13;8.50;71.80
42841;DHT22;28491;46.898;7.660;2023-12-29T12:40:39;8.70;36.80
42841;DHT22;28491;46.898;7.660;2023-12-29T12:43:05;8.70;67.60
42841;DHT22;28491;46.898;7.660;2023-12-29T12:45:42;8.70;28.60
42841;DHT22;28491;46.898;7.660;2023-12-29T12:48:23;8.80;48.90
42841;DHT22;28491;46.898;7.660;2023-12-29T12:50:49;8.80;1.00
42841;DHT22;28491;46.898;7.660;2023-12-29T12:53:15;8.80;1.00
42841;DHT22;28491;46.898;7.660;2023-12-29T12:55:47;8.90;1.00
42841;DHT22;28491;46.898;7.660;2023-12-29T12:58:14;8.80;1.00
42841;DHT22;28491;46.898;7.660;2023-12-29T13:00:40;8.80;99.90
42841;DHT22;28491;46.898;7.660;2023-12-29T13:03:06;9.00;90.30
42841;DHT22;28491;46.898;7.660;2023-12-29T13:05:32;9.00;95.40
42841;DHT22;28491;46.898;7.660;2023-12-29T13:07:58;9.00;90.70
42841;DHT22;28491;46.898;7.660;2023-12-29T13:10:24;9.10;77.60
42841;DHT22;28491;46.898;7.660;2023-12-29T13:12:53;9.20;99.80
42841;DHT22;28491;46.898;7.660;2023-12-29T13:15:20;9.20;1.00
42841;DHT22;28491;46.898;7.660;2023-12-29T13:17:52;9.20;1.00
42841;DHT22;28491;46.898;7.660;2023-12-29T13:20:18;9.20;64.10
42841;DHT22;28491;46.898;7.660;2023-12-29T13:22:47;9.30;76.80
42841;DHT22;28491;46.898;7.660;2023-12-29T13:25:18;9.20;94.30
42841;DHT22;28491;46.898;7.660;2023-12-29T13:27:46;9.30;97.70
42841;DHT22;28491;46.898;7.660;2023-12-29T13:30:12;9.30;95.10
42841;DHT22;28491;46.898;7.660;2023-12-29T13:32:40;9.20;94.30
42841;DHT22;28491;46.898;7.660;2023-12-29T13:35:25;9.10;99.90
42841;DHT22;28491;46.898;7.660;2023-12-29T13:38:00;9.10;99.10
42841;DHT22;28491;46.898;7.660;2023-12-29T13:40:42;9.00;99.90
42841;DHT22;28491;46.898;7.660;2023-12-29T13:43:10;8.90;1.00
42841;DHT22;28491;46.898;7.660;2023-12-29T13:45:39;8.80;1.00
42841;DHT22;28491;46.898;7.660;2023-12-29T13:48:06;8.80;1.00
42841;DHT22;28491;46.898;7.660;2023-12-29T13:50:37;8.80;1.00
42841;DHT22;28491;46.898;7.660;2023-12-29T13:53:05;8.70;1.00
42841;DHT22;28491;46.898;7.660;2023-12-29T13:55:31;8.70;1.00
42841;DHT22;28491;46.898;7.660;2023-12-29T13:58:09;8.80;1.00
42841;DHT22;28491;46.898;7.660;2023-12-29T14:00:37;8.80;1.00
42841;DHT22;28491;46.898;7.660;2023-12-29T14:03:06;8.60;99.90
42841;DHT22;28491;46.898;7.660;2023-12-29T14:05:59;8.60;1.00
42841;DHT22;28491;46.898;7.660;2023-12-29T14:08:26;8.60;1.00
42841;DHT22;28491;46.898;7.660;2023-12-29T14:10:52;8.70;1.00
42841;DHT22;28491;46.898;7.660;2023-12-29T14:13:19;8.70;1.00
42841;DHT22;28491;46.898;7.660;2023-12-29T14:15:58;8.60;1.00
42841;DHT22;28491;46.898;7.660;2023-12-29T14:20:58;8.60;1.00
42841;DHT22;28491;46.898;7.660;2023-12-29T14:23:24;8.50;1.00
42841;DHT22;28491;46.898;7.660;2023-12-29T14:25:50;8.60;1.00
42841;DHT22;28491;46.898;7.660;2023-12-29T14:28:18;8.50;1.00
42841;DHT22;28491;46.898;7.660;2023-12-29T14:30:44;8.40;1.00
42841;DHT22;28491;46.898;7.660;2023-12-29T14:33:10;8.30;1.00
42841;DHT22;28491;46.898;7.660;2023-12-29T14:35:36;8.30;1.00
42841;DHT22;28491;46.898;7.660;2023-12-29T14:38:02;8.30;1.00
42841;DHT22;28491;46.898;7.660;2023-12-29T14:40:29;8.30;1.00
42841;DHT22;28491;46.898;7.660;2023-12-29T14:42:55;8.30;1.00
42841;DHT22;28491;46.898;7.660;2023-12-29T14:45:20;8.20;1.00
42841;DHT22;28491;46.898;7.660;2023-12-29T14:47:46;8.20;1.00
42841;DHT22;28491;46.898;7.660;2023-12-29T14:50:12;8.20;1.00
42841;DHT22;28491;46.898;7.660;2023-12-29T14:52:38;8.20;1.00
42841;DHT22;28491;46.898;7.660;2023-12-29T14:55:04;8.20;1.00
42841;DHT22;28491;46.898;7.660;2023-12-29T14:57:29;8.10;1.00
42841;DHT22;28491;46.898;7.660;2023-12-29T14:59:55;8.10;1.00
42841;DHT22;28491;46.898;7.660;2023-12-29T15:02:21;8.00;1.00
42841;DHT22;28491;46.898;7.660;2023-12-29T15:04:46;8.00;1.00
42841;DHT22;28491;46.898;7.660;2023-12-29T15:07:13;8.00;1.00
42841;DHT22;28491;46.898;7.660;2023-12-29T15:09:39;8.00;14.80
42841;DHT22;28491;46.898;7.660;2023-12-29T15:12:05;8.00;22.50
42841;DHT22;28491;46.898;7.660;2023-12-29T15:14:31;8.00;14.80
42841;DHT22;28491;46.898;7.660;2023-12-29T15:16:56;8.00;20.60
42841;DHT22;28491;46.898;7.660;2023-12-29T15:19:22;8.00;23.40
42841;DHT22;28491;46.898;7.660;2023-12-29T15:21:47;8.00;19.70
42841;DHT22;28491;46.898;7.660;2023-12-29T15:24:13;7.90;15.30
42841;DHT22;28491;46.898;7.660;2023-12-29T15:26:39;7.90;29.60
42841;DHT22;28491;46.898;7.660;2023-12-29T15:29:05;7.90;28.00
42841;DHT22;28491;46.898;7.660;2023-12-29T15:31:32;7.90;21.60
42841;DHT22;28491;46.898;7.660;2023-12-29T15:33:57;7.90;27.10
42841;DHT22;28491;46.898;7.660;2023-12-29T15:36:23;7.80;27.20
42841;DHT22;28491;46.898;7.660;2023-12-29T15:38:49;7.80;29.00
42841;DHT22;28491;46.898;7.660;2023-12-29T15:41:15;7.70;36.10
42841;DHT22;28491;46.898;7.660;2023-12-29T15:43:41;7.70;42.20
42841;DHT22;28491;46.898;7.660;2023-12-29T15:46:16;7.60;40.10
42841;DHT22;28491;46.898;7.660;2023-12-29T15:48:42;7.60;44.00
42841;DHT22;28491;46.898;7.660;2023-12-29T15:51:08;7.50;43.10
42841;DHT22;28491;46.898;7.660;2023-12-29T15:53:34;7.50;53.90
42841;DHT22;28491;46.898;7.660;2023-12-29T15:56:00;7.50;58.90
42841;DHT22;28491;46.898;7.660;2023-12-29T15:58:28;7.50;56.30
42841;DHT22;28491;46.898;7.660;2023-12-29T16:00:54;7.50;60.20
42841;DHT22;28491;46.898;7.660;2023-12-29T16:03:19;7.50;60.20
42841;DHT22;28491;46.898;7.660;2023-12-29T16:05:45;7.50;61.50